sensor_id;sensor_type;location;lat;lon;timestamp;P1;durP1;ratioP1;P2;durP2;ratioP2
30966;SDS011;17649;51.836;8.330;2022-12-19T00:00:28;62.65;;;30.08;;
30966;SDS011;17649;51.836;8.330;2022-12-19T00:06:59;63.13;;;28.50;;
30966;SDS011;17649;51.836;8.330;2022-12-19T00:10:08;65.28;;;29.75;;
30966;SDS011;17649;51.836;8.330;2022-12-19T00:13:37;59.10;;;28.52;;
30966;SDS011;17649;51.836;8.330;2022-12-19T00:17:22;58.05;;;29.00;;
30966;SDS011;17649;51.836;8.330;2022-12-19T00:24:42;61.60;;;29.02;;
30966;SDS011;17649;51.836;8.330;2022-12-19T00:28:19;64.72;;;30.63;;
30966;SDS011;17649;51.836;8.330;2022-12-19T00:31:34;58.38;;;28.70;;
30966;SDS011;17649;51.836;8.330;2022-12-19T00:35:04;60.20;;;29.52;;
30966;SDS011;17649;51.836;8.330;2022-12-19T00:38:26;59.22;;;29.10;;
30966;SDS011;17649;51.836;8.330;2022-12-19T00:41:39;60.78;;;28.73;;
30966;SDS011;17649;51.836;8.330;2022-12-19T00:45:14;61.95;;;28.17;;
30966;SDS011;17649;51.836;8.330;2022-12-19T00:48:34;67.07;;;31.00;;
30966;SDS011;17649;51.836;8.330;2022-12-19T00:51:48;63.97;;;31.00;;
30966;SDS011;17649;51.836;8.330;2022-12-19T00:55:04;60.35;;;29.70;;
30966;SDS011;17649;51.836;8.330;2022-12-19T00:58:17;60.40;;;29.83;;
30966;SDS011;17649;51.836;8.330;2022-12-19T01:01:26;58.00;;;28.75;;
30966;SDS011;17649;51.836;8.330;2022-12-19T01:04:43;56.75;;;27.73;;
30966;SDS011;17649;51.836;8.330;2022-12-19T01:07:44;55.92;;;27.88;;
30966;SDS011;17649;51.836;8.330;2022-12-19T01:10:52;54.72;;;27.10;;
30966;SDS011;17649;51.836;8.330;2022-12-19T01:14:06;60.97;;;28.05;;
30966;SDS011;17649;51.836;8.330;2022-12-19T01:20:59;55.35;;;27.20;;
30966;SDS011;17649;51.836;8.330;2022-12-19T01:24:28;53.70;;;26.45;;
30966;SDS011;17649;51.836;8.330;2022-12-19T01:27:46;56.40;;;27.67;;
30966;SDS011;17649;51.836;8.330;2022-12-19T01:31:08;57.40;;;27.55;;
30966;SDS011;17649;51.836;8.330;2022-12-19T01:42:34;55.83;;;26.98;;
30966;SDS011;17649;51.836;8.330;2022-12-19T01:49:50;52.63;;;26.40;;
30966;SDS011;17649;51.836;8.330;2022-12-19T01:52:59;53.60;;;25.67;;
30966;SDS011;17649;51.836;8.330;2022-12-19T01:56:33;52.40;;;26.17;;
30966;SDS011;17649;51.836;8.330;2022-12-19T01:59:37;54.85;;;26.80;;
30966;SDS011;17649;51.836;8.330;2022-12-19T02:03:06;49.90;;;23.17;;
30966;SDS011;17649;51.836;8.330;2022-12-19T02:06:43;47.03;;;23.35;;
30966;SDS011;17649;51.836;8.330;2022-12-19T02:10:48;51.80;;;25.48;;
30966;SDS011;17649;51.836;8.330;2022-12-19T02:13:58;51.92;;;25.60;;
30966;SDS011;17649;51.836;8.330;2022-12-19T02:17:12;51.83;;;24.53;;
30966;SDS011;17649;51.836;8.330;2022-12-19T02:24:02;51.58;;;25.70;;
30966;SDS011;17649;51.836;8.330;2022-12-19T02:27:34;52.08;;;25.05;;
30966;SDS011;17649;51.836;8.330;2022-12-19T02:41:28;52.85;;;25.70;;
30966;SDS011;17649;51.836;8.330;2022-12-19T02:44:50;49.92;;;24.17;;
30966;SDS011;17649;51.836;8.330;2022-12-19T02:48:23;49.97;;;24.48;;
30966;SDS011;17649;51.836;8.330;2022-12-19T02:51:27;51.72;;;25.83;;
30966;SDS011;17649;51.836;8.330;2022-12-19T02:54:28;55.25;;;25.17;;
30966;SDS011;17649;51.836;8.330;2022-12-19T03:00:53;46.95;;;24.20;;
30966;SDS011;17649;51.836;8.330;2022-12-19T03:10:37;50.25;;;25.73;;
30966;SDS011;17649;51.836;8.330;2022-12-19T03:14:22;48.58;;;23.30;;
30966;SDS011;17649;51.836;8.330;2022-12-19T03:17:50;45.88;;;23.38;;
30966;SDS011;17649;51.836;8.330;2022-12-19T03:21:50;49.85;;;24.25;;
30966;SDS011;17649;51.836;8.330;2022-12-19T03:25:06;47.47;;;24.13;;
30966;SDS011;17649;51.836;8.330;2022-12-19T03:36:09;47.60;;;23.33;;
30966;SDS011;17649;51.836;8.330;2022-12-19T03:39:34;48.25;;;24.25;;
30966;SDS011;17649;51.836;8.330;2022-12-19T03:43:16;51.90;;;23.50;;
30966;SDS011;17649;51.836;8.330;2022-12-19T03:46:42;49.72;;;24.15;;
30966;SDS011;17649;51.836;8.330;2022-12-19T03:50:06;51.90;;;25.02;;
30966;SDS011;17649;51.836;8.330;2022-12-19T04:00:53;49.38;;;24.35;;
30966;SDS011;17649;51.836;8.330;2022-12-19T04:04:29;47.80;;;23.50;;
30966;SDS011;17649;51.836;8.330;2022-12-19T04:07:42;49.33;;;24.03;;
30966;SDS011;17649;51.836;8.330;2022-12-19T04:11:37;50.00;;;24.65;;
30966;SDS011;17649;51.836;8.330;2022-12-19T04:23:54;54.28;;;24.65;;
30966;SDS011;17649;51.836;8.330;2022-12-19T04:27:53;49.40;;;24.67;;
30966;SDS011;17649;51.836;8.330;2022-12-19T04:35:34;56.30;;;26.13;;
30966;SDS011;17649;51.836;8.330;2022-12-19T04:51:01;55.10;;;26.35;;
30966;SDS011;17649;51.836;8.330;2022-12-19T04:58:17;59.10;;;29.60;;
30966;SDS011;17649;51.836;8.330;2022-12-19T05:01:38;56.42;;;28.83;;
30966;SDS011;17649;51.836;8.330;2022-12-19T05:04:48;61.00;;;29.02;;
30966;SDS011;17649;51.836;8.330;2022-12-19T05:07:54;64.78;;;31.30;;
30966;SDS011;17649;51.836;8.330;2022-12-19T05:10:59;59.70;;;28.20;;
30966;SDS011;17649;51.836;8.330;2022-12-19T05:14:07;61.95;;;30.92;;
30966;SDS011;17649;51.836;8.330;2022-12-19T05:17:20;60.28;;;29.08;;
30966;SDS011;17649;51.836;8.330;2022-12-19T05:24:00;63.35;;;30.27;;
30966;SDS011;17649;51.836;8.330;2022-12-19T05:27:00;61.42;;;30.60;;
30966;SDS011;17649;51.836;8.330;2022-12-19T05:30:14;57.72;;;30.20;;
30966;SDS011;17649;51.836;8.330;2022-12-19T05:33:24;59.47;;;29.92;;
30966;SDS011;17649;51.836;8.330;2022-12-19T05:44:34;59.88;;;29.73;;
30966;SDS011;17649;51.836;8.330;2022-12-19T05:47:53;62.85;;;30.20;;
30966;SDS011;17649;51.836;8.330;2022-12-19T05:51:06;60.75;;;30.88;;
30966;SDS011;17649;51.836;8.330;2022-12-19T05:54:24;64.07;;;30.40;;
30966;SDS011;17649;51.836;8.330;2022-12-19T05:58:09;63.42;;;30.80;;
30966;SDS011;17649;51.836;8.330;2022-12-19T06:01:25;60.13;;;29.65;;
30966;SDS011;17649;51.836;8.330;2022-12-19T06:04:29;63.88;;;29.80;;
30966;SDS011;17649;51.836;8.330;2022-12-19T06:07:43;59.72;;;29.85;;
30966;SDS011;17649;51.836;8.330;2022-12-19T06:11:01;59.35;;;29.40;;
30966;SDS011;17649;51.836;8.330;2022-12-19T06:14:26;59.50;;;29.10;;
30966;SDS011;17649;51.836;8.330;2022-12-19T06:21:06;62.05;;;30.92;;
30966;SDS011;17649;51.836;8.330;2022-12-19T06:24:23;59.78;;;29.58;;
30966;SDS011;17649;51.836;8.330;2022-12-19T06:39:37;52.83;;;27.30;;
30966;SDS011;17649;51.836;8.330;2022-12-19T06:42:40;49.78;;;26.98;;
30966;SDS011;17649;51.836;8.330;2022-12-19T06:45:58;47.63;;;26.58;;
30966;SDS011;17649;51.836;8.330;2022-12-19T06:49:03;49.47;;;25.13;;
30966;SDS011;17649;51.836;8.330;2022-12-19T06:52:35;49.33;;;24.77;;
30966;SDS011;17649;51.836;8.330;2022-12-19T06:55:44;46.50;;;24.48;;
30966;SDS011;17649;51.836;8.330;2022-12-19T06:58:51;45.22;;;22.92;;
30966;SDS011;17649;51.836;8.330;2022-12-19T07:02:15;50.88;;;26.10;;
30966;SDS011;17649;51.836;8.330;2022-12-19T07:05:26;48.45;;;26.65;;
30966;SDS011;17649;51.836;8.330;2022-12-19T07:08:39;48.03;;;25.83;;
30966;SDS011;17649;51.836;8.330;2022-12-19T07:12:00;47.60;;;25.30;;
30966;SDS011;17649;51.836;8.330;2022-12-19T07:15:02;56.23;;;33.20;;
30966;SDS011;17649;51.836;8.330;2022-12-19T07:18:27;47.13;;;23.30;;
30966;SDS011;17649;51.836;8.330;2022-12-19T07:25:05;94.55;;;51.03;;
30966;SDS011;17649;51.836;8.330;2022-12-19T07:28:33;44.20;;;24.00;;
30966;SDS011;17649;51.836;8.330;2022-12-19T07:31:52;44.42;;;24.65;;
30966;SDS011;17649;51.836;8.330;2022-12-19T07:35:06;41.53;;;25.83;;
30966;SDS011;17649;51.836;8.330;2022-12-19T07:38:36;37.42;;;22.92;;
30966;SDS011;17649;51.836;8.330;2022-12-19T07:41:39;61.83;;;39.40;;
30966;SDS011;17649;51.836;8.330;2022-12-19T07:44:55;38.03;;;22.92;;
30966;SDS011;17649;51.836;8.330;2022-12-19T07:48:02;39.83;;;23.23;;
30966;SDS011;17649;51.836;8.330;2022-12-19T07:51:20;40.30;;;23.73;;
30966;SDS011;17649;51.836;8.330;2022-12-19T07:54:21;41.67;;;25.63;;
30966;SDS011;17649;51.836;8.330;2022-12-19T07:57:22;30.80;;;19.00;;
30966;SDS011;17649;51.836;8.330;2022-12-19T08:00:34;32.70;;;19.67;;
30966;SDS011;17649;51.836;8.330;2022-12-19T08:03:39;29.83;;;18.10;;
30966;SDS011;17649;51.836;8.330;2022-12-19T08:06:49;29.48;;;16.30;;
30966;SDS011;17649;51.836;8.330;2022-12-19T08:09:50;23.73;;;15.45;;
30966;SDS011;17649;51.836;8.330;2022-12-19T08:12:51;28.90;;;17.90;;
30966;SDS011;17649;51.836;8.330;2022-12-19T08:15:58;25.80;;;17.17;;
30966;SDS011;17649;51.836;8.330;2022-12-19T08:19:08;35.35;;;23.85;;
30966;SDS011;17649;51.836;8.330;2022-12-19T08:22:10;22.63;;;15.07;;
30966;SDS011;17649;51.836;8.330;2022-12-19T08:25:27;24.67;;;16.13;;
30966;SDS011;17649;51.836;8.330;2022-12-19T08:28:31;22.90;;;14.82;;
30966;SDS011;17649;51.836;8.330;2022-12-19T08:31:54;23.10;;;15.60;;
30966;SDS011;17649;51.836;8.330;2022-12-19T08:35:00;30.73;;;21.02;;
30966;SDS011;17649;51.836;8.330;2022-12-19T08:38:03;26.30;;;17.57;;
30966;SDS011;17649;51.836;8.330;2022-12-19T08:41:14;21.45;;;13.73;;
30966;SDS011;17649;51.836;8.330;2022-12-19T08:44:21;23.05;;;14.70;;
30966;SDS011;17649;51.836;8.330;2022-12-19T08:47:25;19.13;;;13.18;;
30966;SDS011;17649;51.836;8.330;2022-12-19T08:50:34;18.73;;;12.25;;
30966;SDS011;17649;51.836;8.330;2022-12-19T08:53:57;20.52;;;13.70;;
30966;SDS011;17649;51.836;8.330;2022-12-19T08:57:01;17.95;;;12.15;;
30966;SDS011;17649;51.836;8.330;2022-12-19T09:00:03;16.73;;;11.03;;
30966;SDS011;17649;51.836;8.330;2022-12-19T09:03:12;20.13;;;12.10;;
30966;SDS011;17649;51.836;8.330;2022-12-19T09:06:14;20.48;;;13.70;;
30966;SDS011;17649;51.836;8.330;2022-12-19T09:09:53;18.77;;;12.70;;
30966;SDS011;17649;51.836;8.330;2022-12-19T09:13:00;32.53;;;21.45;;
30966;SDS011;17649;51.836;8.330;2022-12-19T09:19:18;28.25;;;18.30;;
30966;SDS011;17649;51.836;8.330;2022-12-19T09:22:26;24.63;;;16.02;;
30966;SDS011;17649;51.836;8.330;2022-12-19T09:25:29;23.55;;;16.17;;
30966;SDS011;17649;51.836;8.330;2022-12-19T09:28:30;22.70;;;14.63;;
30966;SDS011;17649;51.836;8.330;2022-12-19T09:31:38;22.80;;;14.10;;
30966;SDS011;17649;51.836;8.330;2022-12-19T09:34:45;25.92;;;16.13;;
30966;SDS011;17649;51.836;8.330;2022-12-19T09:37:47;39.65;;;21.10;;
30966;SDS011;17649;51.836;8.330;2022-12-19T09:41:05;32.42;;;18.33;;
30966;SDS011;17649;51.836;8.330;2022-12-19T09:56:26;23.88;;;14.80;;
30966;SDS011;17649;51.836;8.330;2022-12-19T10:00:17;22.92;;;15.05;;
30966;SDS011;17649;51.836;8.330;2022-12-19T10:03:04;25.77;;;16.45;;
30966;SDS011;17649;51.836;8.330;2022-12-19T10:06:31;25.65;;;15.68;;
30966;SDS011;17649;51.836;8.330;2022-12-19T10:09:34;22.50;;;14.82;;
30966;SDS011;17649;51.836;8.330;2022-12-19T10:19:08;23.67;;;14.95;;
30966;SDS011;17649;51.836;8.330;2022-12-19T10:22:22;23.13;;;14.73;;
30966;SDS011;17649;51.836;8.330;2022-12-19T10:29:06;29.27;;;15.70;;
30966;SDS011;17649;51.836;8.330;2022-12-19T10:35:56;24.25;;;14.70;;
30966;SDS011;17649;51.836;8.330;2022-12-19T10:49:37;19.13;;;12.45;;
30966;SDS011;17649;51.836;8.330;2022-12-19T10:52:54;22.43;;;13.07;;
30966;SDS011;17649;51.836;8.330;2022-12-19T10:56:24;20.25;;;13.50;;
30966;SDS011;17649;51.836;8.330;2022-12-19T10:59:26;20.77;;;13.23;;
30966;SDS011;17649;51.836;8.330;2022-12-19T11:02:40;17.40;;;11.63;;
30966;SDS011;17649;51.836;8.330;2022-12-19T11:05:49;22.45;;;12.25;;
30966;SDS011;17649;51.836;8.330;2022-12-19T11:08:57;24.13;;;12.77;;
30966;SDS011;17649;51.836;8.330;2022-12-19T11:12:34;20.10;;;12.50;;
30966;SDS011;17649;51.836;8.330;2022-12-19T11:15:36;20.23;;;12.68;;
30966;SDS011;17649;51.836;8.330;2022-12-19T11:18:46;20.43;;;12.97;;
30966;SDS011;17649;51.836;8.330;2022-12-19T11:21:51;23.20;;;13.88;;
30966;SDS011;17649;51.836;8.330;2022-12-19T11:24:52;22.03;;;14.03;;
30966;SDS011;17649;51.836;8.330;2022-12-19T11:27:54;24.15;;;13.93;;
30966;SDS011;17649;51.836;8.330;2022-12-19T11:30:56;22.27;;;14.55;;
30966;SDS011;17649;51.836;8.330;2022-12-19T11:34:13;25.27;;;15.73;;
30966;SDS011;17649;51.836;8.330;2022-12-19T11:40:35;23.63;;;14.30;;
30966;SDS011;17649;51.836;8.330;2022-12-19T11:47:04;23.85;;;14.40;;
30966;SDS011;17649;51.836;8.330;2022-12-19T11:53:27;25.40;;;14.95;;
30966;SDS011;17649;51.836;8.330;2022-12-19T11:56:34;21.13;;;13.38;;
30966;SDS011;17649;51.836;8.330;2022-12-19T11:59:35;22.20;;;13.80;;
30966;SDS011;17649;51.836;8.330;2022-12-19T12:06:15;22.73;;;13.77;;
30966;SDS011;17649;51.836;8.330;2022-12-19T12:12:37;25.13;;;13.98;;
30966;SDS011;17649;51.836;8.330;2022-12-19T12:16:00;26.60;;;15.65;;
30966;SDS011;17649;51.836;8.330;2022-12-19T12:31:03;23.67;;;14.00;;
30966;SDS011;17649;51.836;8.330;2022-12-19T12:46:12;20.67;;;12.25;;
30966;SDS011;17649;51.836;8.330;2022-12-19T12:53:18;21.58;;;13.18;;
30966;SDS011;17649;51.836;8.330;2022-12-19T12:56:27;21.33;;;12.07;;
30966;SDS011;17649;51.836;8.330;2022-12-19T12:59:28;19.10;;;12.23;;
30966;SDS011;17649;51.836;8.330;2022-12-19T13:02:29;19.50;;;12.20;;
30966;SDS011;17649;51.836;8.330;2022-12-19T13:05:39;19.83;;;11.35;;
30966;SDS011;17649;51.836;8.330;2022-12-19T13:12:23;21.73;;;11.65;;
30966;SDS011;17649;51.836;8.330;2022-12-19T13:15:44;21.67;;;12.15;;
30966;SDS011;17649;51.836;8.330;2022-12-19T13:19:01;19.55;;;11.38;;
30966;SDS011;17649;51.836;8.330;2022-12-19T13:22:16;18.67;;;11.90;;
30966;SDS011;17649;51.836;8.330;2022-12-19T13:31:25;15.27;;;10.10;;
30966;SDS011;17649;51.836;8.330;2022-12-19T13:34:32;18.40;;;11.05;;
30966;SDS011;17649;51.836;8.330;2022-12-19T13:41:02;15.10;;;9.63;;
30966;SDS011;17649;51.836;8.330;2022-12-19T13:44:42;18.38;;;10.90;;
30966;SDS011;17649;51.836;8.330;2022-12-19T13:47:43;16.45;;;10.20;;
30966;SDS011;17649;51.836;8.330;2022-12-19T13:50:45;16.35;;;10.55;;
30966;SDS011;17649;51.836;8.330;2022-12-19T13:53:56;20.13;;;9.88;;
30966;SDS011;17649;51.836;8.330;2022-12-19T13:56:56;16.80;;;11.00;;
30966;SDS011;17649;51.836;8.330;2022-12-19T14:00:01;16.27;;;9.80;;
30966;SDS011;17649;51.836;8.330;2022-12-19T14:03:15;17.17;;;10.57;;
30966;SDS011;17649;51.836;8.330;2022-12-19T14:06:20;15.73;;;9.77;;
30966;SDS011;17649;51.836;8.330;2022-12-19T14:09:33;15.80;;;10.20;;
30966;SDS011;17649;51.836;8.330;2022-12-19T14:12:38;17.25;;;10.23;;
30966;SDS011;17649;51.836;8.330;2022-12-19T14:16:00;15.27;;;9.02;;
30966;SDS011;17649;51.836;8.330;2022-12-19T14:19:01;16.05;;;9.73;;
30966;SDS011;17649;51.836;8.330;2022-12-19T14:22:21;17.00;;;10.05;;
30966;SDS011;17649;51.836;8.330;2022-12-19T14:26:07;15.20;;;9.60;;
30966;SDS011;17649;51.836;8.330;2022-12-19T14:28:53;15.37;;;9.93;;
30966;SDS011;17649;51.836;8.330;2022-12-19T14:31:55;19.05;;;9.82;;
30966;SDS011;17649;51.836;8.330;2022-12-19T14:34:57;16.52;;;10.63;;
30966;SDS011;17649;51.836;8.330;2022-12-19T14:38:05;15.43;;;9.93;;
30966;SDS011;17649;51.836;8.330;2022-12-19T14:41:15;16.50;;;10.23;;
30966;SDS011;17649;51.836;8.330;2022-12-19T14:44:50;16.47;;;9.47;;
30966;SDS011;17649;51.836;8.330;2022-12-19T14:51:43;16.38;;;9.80;;
30966;SDS011;17649;51.836;8.330;2022-12-19T14:55:11;14.97;;;9.50;;
30966;SDS011;17649;51.836;8.330;2022-12-19T14:58:26;15.13;;;8.85;;
30966;SDS011;17649;51.836;8.330;2022-12-19T15:01:33;14.10;;;8.98;;
30966;SDS011;17649;51.836;8.330;2022-12-19T15:04:39;16.80;;;9.95;;
30966;SDS011;17649;51.836;8.330;2022-12-19T15:07:46;16.92;;;9.10;;
30966;SDS011;17649;51.836;8.330;2022-12-19T15:10:48;15.45;;;9.20;;
30966;SDS011;17649;51.836;8.330;2022-12-19T15:13:56;14.00;;;8.97;;
30966;SDS011;17649;51.836;8.330;2022-12-19T15:20:20;14.90;;;10.20;;
30966;SDS011;17649;51.836;8.330;2022-12-19T15:23:21;14.33;;;9.20;;
30966;SDS011;17649;51.836;8.330;2022-12-19T15:26:27;14.23;;;8.48;;
30966;SDS011;17649;51.836;8.330;2022-12-19T15:29:32;15.55;;;9.52;;
30966;SDS011;17649;51.836;8.330;2022-12-19T15:32:33;12.82;;;8.60;;
30966;SDS011;17649;51.836;8.330;2022-12-19T15:35:34;13.93;;;8.73;;
30966;SDS011;17649;51.836;8.330;2022-12-19T15:38:37;15.03;;;8.80;;
30966;SDS011;17649;51.836;8.330;2022-12-19T15:41:37;15.10;;;9.48;;
30966;SDS011;17649;51.836;8.330;2022-12-19T15:44:38;16.08;;;9.88;;
30966;SDS011;17649;51.836;8.330;2022-12-19T15:47:40;15.57;;;9.82;;
30966;SDS011;17649;51.836;8.330;2022-12-19T15:58:27;16.52;;;9.70;;
30966;SDS011;17649;51.836;8.330;2022-12-19T16:07:22;13.98;;;8.60;;
30966;SDS011;17649;51.836;8.330;2022-12-19T16:14:33;15.95;;;9.60;;
30966;SDS011;17649;51.836;8.330;2022-12-19T16:17:35;14.50;;;8.93;;
30966;SDS011;17649;51.836;8.330;2022-12-19T16:20:58;15.68;;;9.00;;
30966;SDS011;17649;51.836;8.330;2022-12-19T16:24:19;17.03;;;9.30;;
30966;SDS011;17649;51.836;8.330;2022-12-19T16:27:22;16.43;;;10.00;;
30966;SDS011;17649;51.836;8.330;2022-12-19T16:30:43;16.08;;;9.68;;
30966;SDS011;17649;51.836;8.330;2022-12-19T16:34:07;14.50;;;9.82;;
30966;SDS011;17649;51.836;8.330;2022-12-19T16:37:41;15.27;;;9.50;;
30966;SDS011;17649;51.836;8.330;2022-12-19T16:40:50;14.70;;;9.37;;
30966;SDS011;17649;51.836;8.330;2022-12-19T16:44:59;17.20;;;9.18;;
30966;SDS011;17649;51.836;8.330;2022-12-19T16:47:52;18.45;;;9.50;;
30966;SDS011;17649;51.836;8.330;2022-12-19T16:54:46;16.48;;;9.68;;
30966;SDS011;17649;51.836;8.330;2022-12-19T16:57:54;14.52;;;9.25;;
30966;SDS011;17649;51.836;8.330;2022-12-19T17:01:17;16.08;;;8.45;;
30966;SDS011;17649;51.836;8.330;2022-12-19T17:04:22;14.95;;;8.73;;
30966;SDS011;17649;51.836;8.330;2022-12-19T17:07:32;16.00;;;9.27;;
30966;SDS011;17649;51.836;8.330;2022-12-19T17:10:43;15.27;;;9.00;;
30966;SDS011;17649;51.836;8.330;2022-12-19T17:14:25;14.00;;;8.65;;
30966;SDS011;17649;51.836;8.330;2022-12-19T17:17:41;15.15;;;8.57;;
30966;SDS011;17649;51.836;8.330;2022-12-19T17:20:47;14.13;;;8.50;;
30966;SDS011;17649;51.836;8.330;2022-12-19T17:24:12;19.88;;;11.48;;
30966;SDS011;17649;51.836;8.330;2022-12-19T17:27:18;18.10;;;11.02;;
30966;SDS011;17649;51.836;8.330;2022-12-19T17:30:41;16.45;;;10.43;;
30966;SDS011;17649;51.836;8.330;2022-12-19T17:37:29;14.80;;;8.88;;
30966;SDS011;17649;51.836;8.330;2022-12-19T17:40:42;13.07;;;8.45;;
30966;SDS011;17649;51.836;8.330;2022-12-19T17:43:58;12.57;;;8.48;;
30966;SDS011;17649;51.836;8.330;2022-12-19T17:47:17;12.90;;;8.82;;
30966;SDS011;17649;51.836;8.330;2022-12-19T17:50:47;15.75;;;9.73;;
30966;SDS011;17649;51.836;8.330;2022-12-19T17:54:00;16.88;;;9.40;;
30966;SDS011;17649;51.836;8.330;2022-12-19T18:00:27;16.47;;;9.20;;
30966;SDS011;17649;51.836;8.330;2022-12-19T18:03:37;15.25;;;9.68;;
30966;SDS011;17649;51.836;8.330;2022-12-19T18:06:50;14.02;;;8.77;;
30966;SDS011;17649;51.836;8.330;2022-12-19T18:10:14;13.88;;;8.23;;
30966;SDS011;17649;51.836;8.330;2022-12-19T18:13:17;16.33;;;9.50;;
30966;SDS011;17649;51.836;8.330;2022-12-19T18:16:26;18.13;;;12.07;;
30966;SDS011;17649;51.836;8.330;2022-12-19T18:19:30;16.40;;;10.52;;
30966;SDS011;17649;51.836;8.330;2022-12-19T18:22:57;14.20;;;9.15;;
30966;SDS011;17649;51.836;8.330;2022-12-19T18:26:04;14.27;;;8.70;;
30966;SDS011;17649;51.836;8.330;2022-12-19T18:29:09;10.90;;;7.28;;
30966;SDS011;17649;51.836;8.330;2022-12-19T18:32:23;14.90;;;7.90;;
30966;SDS011;17649;51.836;8.330;2022-12-19T18:35:36;11.00;;;6.83;;
30966;SDS011;17649;51.836;8.330;2022-12-19T18:38:40;11.98;;;7.25;;
30966;SDS011;17649;51.836;8.330;2022-12-19T18:41:41;11.45;;;7.28;;
30966;SDS011;17649;51.836;8.330;2022-12-19T18:44:44;13.07;;;6.75;;
30966;SDS011;17649;51.836;8.330;2022-12-19T18:47:48;14.07;;;7.25;;
30966;SDS011;17649;51.836;8.330;2022-12-19T18:50:58;11.27;;;6.60;;
30966;SDS011;17649;51.836;8.330;2022-12-19T18:54:09;11.43;;;6.93;;
30966;SDS011;17649;51.836;8.330;2022-12-19T18:57:16;12.10;;;7.45;;
30966;SDS011;17649;51.836;8.330;2022-12-19T19:00:21;10.15;;;6.93;;
30966;SDS011;17649;51.836;8.330;2022-12-19T19:03:34;10.60;;;6.70;;
30966;SDS011;17649;51.836;8.330;2022-12-19T19:06:37;11.13;;;7.15;;
30966;SDS011;17649;51.836;8.330;2022-12-19T19:09:38;10.80;;;6.72;;
30966;SDS011;17649;51.836;8.330;2022-12-19T19:12:39;12.05;;;6.70;;
30966;SDS011;17649;51.836;8.330;2022-12-19T19:15:41;10.97;;;6.50;;
30966;SDS011;17649;51.836;8.330;2022-12-19T19:19:05;15.75;;;7.00;;
30966;SDS011;17649;51.836;8.330;2022-12-19T19:22:18;12.82;;;6.60;;
30966;SDS011;17649;51.836;8.330;2022-12-19T19:25:18;12.87;;;6.97;;
30966;SDS011;17649;51.836;8.330;2022-12-19T19:28:21;10.48;;;6.53;;
30966;SDS011;17649;51.836;8.330;2022-12-19T19:31:25;14.95;;;7.40;;
30966;SDS011;17649;51.836;8.330;2022-12-19T19:34:32;12.93;;;7.95;;
30966;SDS011;17649;51.836;8.330;2022-12-19T19:37:35;11.45;;;7.22;;
30966;SDS011;17649;51.836;8.330;2022-12-19T19:40:43;11.32;;;7.10;;
30966;SDS011;17649;51.836;8.330;2022-12-19T19:43:46;12.93;;;7.20;;
30966;SDS011;17649;51.836;8.330;2022-12-19T19:46:47;13.38;;;7.72;;
30966;SDS011;17649;51.836;8.330;2022-12-19T19:49:48;10.82;;;7.13;;
30966;SDS011;17649;51.836;8.330;2022-12-19T19:52:48;12.97;;;7.07;;
30966;SDS011;17649;51.836;8.330;2022-12-19T19:55:52;14.43;;;7.83;;
30966;SDS011;17649;51.836;8.330;2022-12-19T19:58:56;12.48;;;7.25;;
30966;SDS011;17649;51.836;8.330;2022-12-19T20:02:01;15.30;;;8.37;;
30966;SDS011;17649;51.836;8.330;2022-12-19T20:12:28;11.30;;;7.40;;
30966;SDS011;17649;51.836;8.330;2022-12-19T20:15:52;11.43;;;7.05;;
30966;SDS011;17649;51.836;8.330;2022-12-19T20:18:55;14.13;;;7.82;;
30966;SDS011;17649;51.836;8.330;2022-12-19T20:21:56;13.60;;;7.43;;
30966;SDS011;17649;51.836;8.330;2022-12-19T20:25:21;14.75;;;8.45;;
30966;SDS011;17649;51.836;8.330;2022-12-19T20:32:45;14.77;;;8.05;;
30966;SDS011;17649;51.836;8.330;2022-12-19T20:36:34;11.73;;;7.30;;
30966;SDS011;17649;51.836;8.330;2022-12-19T20:40:13;12.65;;;6.93;;
30966;SDS011;17649;51.836;8.330;2022-12-19T20:43:23;13.40;;;7.82;;
30966;SDS011;17649;51.836;8.330;2022-12-19T20:49:59;13.75;;;7.72;;
30966;SDS011;17649;51.836;8.330;2022-12-19T20:53:11;12.90;;;7.45;;
30966;SDS011;17649;51.836;8.330;2022-12-19T20:56:30;12.97;;;7.47;;
30966;SDS011;17649;51.836;8.330;2022-12-19T20:59:39;13.57;;;7.13;;
30966;SDS011;17649;51.836;8.330;2022-12-19T21:02:40;10.87;;;6.97;;
30966;SDS011;17649;51.836;8.330;2022-12-19T21:06:00;12.85;;;7.65;;
30966;SDS011;17649;51.836;8.330;2022-12-19T21:09:26;13.38;;;8.02;;
30966;SDS011;17649;51.836;8.330;2022-12-19T21:12:39;15.80;;;8.05;;
30966;SDS011;17649;51.836;8.330;2022-12-19T21:20:28;13.97;;;7.63;;
30966;SDS011;17649;51.836;8.330;2022-12-19T21:23:32;14.80;;;7.33;;
30966;SDS011;17649;51.836;8.330;2022-12-19T21:26:53;11.57;;;7.22;;
30966;SDS011;17649;51.836;8.330;2022-12-19T21:30:15;12.50;;;7.13;;
30966;SDS011;17649;51.836;8.330;2022-12-19T21:33:25;11.38;;;6.82;;
30966;SDS011;17649;51.836;8.330;2022-12-19T21:36:37;10.75;;;7.05;;
30966;SDS011;17649;51.836;8.330;2022-12-19T21:39:52;11.80;;;7.20;;
30966;SDS011;17649;51.836;8.330;2022-12-19T21:43:05;12.48;;;7.15;;
30966;SDS011;17649;51.836;8.330;2022-12-19T21:50:11;10.93;;;6.65;;
30966;SDS011;17649;51.836;8.330;2022-12-19T21:53:44;10.60;;;6.72;;
30966;SDS011;17649;51.836;8.330;2022-12-19T21:56:50;10.93;;;6.43;;
30966;SDS011;17649;51.836;8.330;2022-12-19T21:59:59;12.20;;;6.40;;
30966;SDS011;17649;51.836;8.330;2022-12-19T22:03:26;12.57;;;6.75;;
30966;SDS011;17649;51.836;8.330;2022-12-19T22:07:04;12.00;;;5.93;;
30966;SDS011;17649;51.836;8.330;2022-12-19T22:10:21;11.00;;;5.87;;
30966;SDS011;17649;51.836;8.330;2022-12-19T22:16:43;10.43;;;6.73;;
30966;SDS011;17649;51.836;8.330;2022-12-19T22:20:15;10.63;;;5.85;;
30966;SDS011;17649;51.836;8.330;2022-12-19T22:23:40;12.85;;;6.30;;
30966;SDS011;17649;51.836;8.330;2022-12-19T22:27:34;9.15;;;5.85;;
30966;SDS011;17649;51.836;8.330;2022-12-19T22:30:35;13.88;;;6.38;;
30966;SDS011;17649;51.836;8.330;2022-12-19T22:33:35;12.25;;;6.22;;
30966;SDS011;17649;51.836;8.330;2022-12-19T22:36:38;11.57;;;6.00;;
30966;SDS011;17649;51.836;8.330;2022-12-19T22:39:52;12.02;;;7.00;;
30966;SDS011;17649;51.836;8.330;2022-12-19T22:43:06;11.20;;;6.25;;
30966;SDS011;17649;51.836;8.330;2022-12-19T22:50:12;12.93;;;6.70;;
30966;SDS011;17649;51.836;8.330;2022-12-19T22:53:43;11.50;;;6.40;;
30966;SDS011;17649;51.836;8.330;2022-12-19T22:57:01;12.55;;;6.07;;
30966;SDS011;17649;51.836;8.330;2022-12-19T23:00:30;9.40;;;5.53;;
30966;SDS011;17649;51.836;8.330;2022-12-19T23:03:37;14.18;;;7.00;;
30966;SDS011;17649;51.836;8.330;2022-12-19T23:07:09;12.07;;;6.18;;
30966;SDS011;17649;51.836;8.330;2022-12-19T23:10:22;10.43;;;6.37;;
30966;SDS011;17649;51.836;8.330;2022-12-19T23:13:45;9.32;;;6.28;;
30966;SDS011;17649;51.836;8.330;2022-12-19T23:16:57;9.98;;;5.95;;
30966;SDS011;17649;51.836;8.330;2022-12-19T23:20:30;8.55;;;6.18;;
30966;SDS011;17649;51.836;8.330;2022-12-19T23:23:41;14.50;;;5.93;;
30966;SDS011;17649;51.836;8.330;2022-12-19T23:26:48;11.23;;;5.68;;
30966;SDS011;17649;51.836;8.330;2022-12-19T23:29:49;9.27;;;5.75;;
30966;SDS011;17649;51.836;8.330;2022-12-19T23:33:00;9.60;;;5.90;;
30966;SDS011;17649;51.836;8.330;2022-12-19T23:36:05;8.88;;;5.70;;
30966;SDS011;17649;51.836;8.330;2022-12-19T23:39:14;12.95;;;5.90;;
30966;SDS011;17649;51.836;8.330;2022-12-19T23:42:15;11.32;;;6.50;;
30966;SDS011;17649;51.836;8.330;2022-12-19T23:45:18;10.60;;;6.03;;